createdAt,value
2018-04-17T00:01:25.922Z,14.00
2018-04-17T00:03:53.700Z,13.80
2018-04-17T00:06:20.716Z,13.80
2018-04-17T00:08:47.963Z,13.90
2018-04-17T00:11:15.121Z,13.90
2018-04-17T00:13:42.120Z,13.90
2018-04-17T00:16:09.152Z,13.90
2018-04-17T00:18:36.175Z,13.90
2018-04-17T00:21:03.965Z,13.90
2018-04-17T00:23:31.689Z,13.90
2018-04-17T00:25:58.689Z,13.90
2018-04-17T00:28:25.752Z,13.90
2018-04-17T00:30:52.751Z,13.80
2018-04-17T00:33:20.504Z,13.90
2018-04-17T00:35:48.247Z,13.90
2018-04-17T00:38:15.268Z,13.90
2018-04-17T00:40:42.276Z,13.90
2018-04-17T00:43:10.023Z,14.00
2018-04-17T00:45:37.812Z,14.00
2018-04-17T00:48:04.856Z,14.00
2018-04-17T00:50:32.630Z,14.00
2018-04-17T00:53:00.407Z,14.00
2018-04-17T00:55:27.423Z,14.00
2018-04-17T00:57:54.459Z,14.00
2018-04-17T01:00:21.491Z,14.00
2018-04-17T01:02:48.511Z,14.00
2018-04-17T01:05:15.540Z,14.00
2018-04-17T01:07:42.560Z,14.00
2018-04-17T01:10:10.327Z,14.00
2018-04-17T01:12:37.306Z,14.00
2018-04-17T01:15:04.359Z,14.00
2018-04-17T01:17:31.972Z,14.00
2018-04-17T01:19:59.000Z,14.00
2018-04-17T01:22:26.020Z,14.00
2018-04-17T01:24:53.045Z,14.00
2018-04-17T01:27:20.067Z,14.00
2018-04-17T01:29:47.095Z,14.00
2018-04-17T01:32:14.944Z,14.10
2018-04-17T01:34:42.794Z,14.10
2018-04-17T01:37:09.759Z,14.00
2018-04-17T01:39:36.803Z,14.00
2018-04-17T01:42:03.816Z,14.00
2018-04-17T01:44:30.849Z,14.00
2018-04-17T01:46:57.879Z,14.00
2018-04-17T01:49:24.896Z,14.00
2018-04-17T01:51:51.887Z,14.00
2018-04-17T01:54:18.921Z,13.90
2018-04-17T01:56:45.927Z,13.90
2018-04-17T01:59:12.948Z,13.90
2018-04-17T02:01:39.932Z,13.90
2018-04-17T02:04:06.957Z,13.90
2018-04-17T02:06:33.955Z,13.90
2018-04-17T02:09:01.734Z,13.90
2018-04-17T02:11:28.964Z,13.90
2018-04-17T02:13:56.023Z,13.90
2018-04-17T02:16:23.780Z,13.90
2018-04-17T02:18:51.532Z,13.90
2018-04-17T02:21:19.300Z,13.90
2018-04-17T02:23:47.048Z,13.90
2018-04-17T02:26:14.023Z,13.80
2018-04-17T02:28:41.017Z,13.90
2018-04-17T02:31:08.013Z,13.80
2018-04-17T02:33:35.780Z,13.80
2018-04-17T02:36:03.542Z,13.80
2018-04-17T02:38:30.568Z,13.80
2018-04-17T02:40:57.579Z,13.80
2018-04-17T02:43:24.587Z,13.80
2018-04-17T02:45:51.617Z,13.80
2018-04-17T02:48:19.379Z,13.80
2018-04-17T02:50:46.619Z,13.80
2018-04-17T02:53:13.631Z,13.80
2018-04-17T02:55:40.615Z,13.80
2018-04-17T02:58:07.636Z,13.80
2018-04-17T03:00:34.654Z,13.80
2018-04-17T03:03:01.652Z,13.80
2018-04-17T03:05:28.664Z,13.80
2018-04-17T03:07:55.678Z,13.70
2018-04-17T03:10:22.679Z,13.70
2018-04-17T03:12:49.679Z,13.70
2018-04-17T03:15:17.508Z,13.70
2018-04-17T03:17:44.499Z,13.60
2018-04-17T03:20:11.512Z,13.70
2018-04-17T03:22:38.523Z,13.70
2018-04-17T03:25:05.516Z,13.70
2018-04-17T03:27:33.268Z,13.70
2018-04-17T03:30:01.058Z,13.70
2018-04-17T03:32:28.112Z,13.70
2018-04-17T03:34:55.144Z,13.70
2018-04-17T03:37:22.173Z,13.60
2018-04-17T03:39:49.943Z,13.60
2018-04-17T03:42:16.948Z,13.60
2018-04-17T03:44:44.034Z,13.60
2018-04-17T03:47:11.028Z,13.60
2018-04-17T03:49:38.015Z,13.60
2018-04-17T03:52:05.792Z,13.60
2018-04-17T03:54:32.845Z,13.60
2018-04-17T03:57:00.591Z,13.50
2018-04-17T03:59:28.375Z,13.50
2018-04-17T04:01:56.117Z,13.50
2018-04-17T04:04:23.880Z,13.50
2018-04-17T04:06:50.884Z,13.50
2018-04-17T04:09:17.920Z,13.50
2018-04-17T04:11:44.948Z,13.50
2018-04-17T04:14:12.681Z,13.50
2018-04-17T04:16:58.271Z,13.50
2018-04-17T04:19:44.535Z,13.50
2018-04-17T04:22:30.161Z,13.50
2018-04-17T04:28:05.968Z,13.50
2018-04-17T04:30:33.081Z,13.50
2018-04-17T04:33:00.262Z,13.50
2018-04-17T04:35:27.340Z,13.50
2018-04-17T04:37:54.363Z,13.50
2018-04-17T04:40:21.656Z,13.60
2018-04-17T04:42:48.766Z,13.60
2018-04-17T04:45:15.812Z,13.60
2018-04-17T04:47:42.842Z,13.60
2018-04-17T04:50:10.150Z,13.60
2018-04-17T04:52:37.338Z,13.60
2018-04-17T04:55:04.560Z,13.60
2018-04-17T04:57:32.543Z,13.60
2018-04-17T04:59:59.710Z,13.60
2018-04-17T05:02:26.833Z,13.60
2018-04-17T05:04:54.673Z,13.60
2018-04-17T05:07:21.686Z,13.60
2018-04-17T05:09:48.920Z,13.60
2018-04-17T05:12:16.077Z,13.60
2018-04-17T05:14:43.281Z,13.60
2018-04-17T05:17:11.189Z,13.70
2018-04-17T05:19:38.336Z,13.70
2018-04-17T05:22:05.430Z,13.70
2018-04-17T05:24:32.678Z,13.70
2018-04-17T05:26:59.808Z,13.70
2018-04-17T05:29:26.973Z,13.70
2018-04-17T05:31:54.043Z,13.70
2018-04-17T05:34:21.539Z,13.70
2018-04-17T05:36:48.571Z,13.70
2018-04-17T05:39:16.364Z,13.70
2018-04-17T05:41:43.383Z,13.70
2018-04-17T05:44:10.632Z,13.70
2018-04-17T05:46:37.731Z,13.70
2018-04-17T05:49:04.950Z,13.80
2018-04-17T05:51:32.022Z,13.80
2018-04-17T05:53:59.101Z,13.80
2018-04-17T05:56:26.150Z,13.90
2018-04-17T05:58:53.201Z,13.90
2018-04-17T06:01:20.427Z,13.90
2018-04-17T06:03:47.572Z,13.90
2018-04-17T06:06:15.430Z,13.90
2018-04-17T06:08:42.520Z,13.90
2018-04-17T06:11:09.820Z,13.90
2018-04-17T06:13:36.893Z,14.00
2018-04-17T06:16:03.935Z,14.00
2018-04-17T06:18:31.753Z,14.10
2018-04-17T06:20:59.806Z,14.10
2018-04-17T06:23:27.641Z,14.10
2018-04-17T06:25:54.718Z,14.10
2018-04-17T06:28:21.795Z,14.10
2018-04-17T06:30:48.857Z,14.10
2018-04-17T06:33:16.177Z,14.10
2018-04-17T06:35:44.174Z,14.20
2018-04-17T06:38:11.287Z,14.20
2018-04-17T06:40:38.515Z,14.20
2018-04-17T06:43:06.409Z,14.10
2018-04-17T06:45:33.498Z,14.10
2018-04-17T06:48:00.563Z,14.00
2018-04-17T06:50:27.799Z,14.00
2018-04-17T06:52:54.920Z,14.10
2018-04-17T06:55:22.142Z,14.10
2018-04-17T06:57:49.296Z,14.20
2018-04-17T07:00:17.150Z,14.40
2018-04-17T07:02:44.150Z,14.30
2018-04-17T07:05:11.202Z,14.40
2018-04-17T07:07:38.172Z,14.40
2018-04-17T07:10:05.195Z,14.50
2018-04-17T07:12:32.955Z,14.60
2018-04-17T07:15:00.699Z,14.60
2018-04-17T07:17:27.700Z,14.70
2018-04-17T07:19:54.739Z,14.60
2018-04-17T07:22:22.455Z,14.70
2018-04-17T07:24:50.216Z,14.70
2018-04-17T07:27:17.196Z,14.70
2018-04-17T07:29:44.962Z,14.90
2018-04-17T07:32:11.973Z,14.90
2018-04-17T07:34:39.046Z,15.00
2018-04-17T07:37:06.048Z,15.00
2018-04-17T07:39:33.075Z,15.00
2018-04-17T07:42:00.096Z,15.10
2018-04-17T07:44:27.120Z,15.20
2018-04-17T07:47:13.424Z,15.30
2018-04-17T07:49:40.424Z,15.30
2018-04-17T07:52:07.454Z,15.40
2018-04-17T07:54:34.497Z,15.50
2018-04-17T07:57:01.510Z,15.40
2018-04-17T07:59:29.295Z,15.50
2018-04-17T08:01:56.313Z,15.60
2018-04-17T08:04:23.321Z,15.60
2018-04-17T08:06:50.339Z,15.60
2018-04-17T08:09:17.345Z,15.70
2018-04-17T08:11:44.370Z,15.80
2018-04-17T08:14:11.348Z,15.80
2018-04-17T08:16:38.346Z,15.90
2018-04-17T08:19:05.381Z,15.90
2018-04-17T08:21:32.395Z,15.90
2018-04-17T08:24:00.145Z,16.00
2018-04-17T08:26:27.136Z,16.00
2018-04-17T08:28:54.148Z,16.00
2018-04-17T08:31:21.909Z,16.10
2018-04-17T08:33:49.675Z,16.20
2018-04-17T08:36:17.437Z,16.30
2018-04-17T08:38:44.440Z,16.30
2018-04-17T08:41:11.407Z,16.30
2018-04-17T08:43:38.405Z,16.40
2018-04-17T08:46:05.470Z,16.40
2018-04-17T08:48:32.507Z,16.50
2018-04-17T08:50:59.507Z,16.70
2018-04-17T08:53:26.524Z,16.70
2018-04-17T08:55:53.547Z,16.80
2018-04-17T08:58:20.554Z,16.90
2018-04-17T09:00:48.345Z,17.00
2018-04-17T09:03:15.368Z,17.00
2018-04-17T09:05:43.124Z,17.10
2018-04-17T09:08:10.128Z,17.10
2018-04-17T09:10:37.198Z,17.20
2018-04-17T09:13:04.233Z,17.20
2018-04-17T09:15:31.243Z,17.30
2018-04-17T09:17:58.983Z,17.50
2018-04-17T09:20:26.007Z,17.50
2018-04-17T09:22:53.020Z,17.40
2018-04-17T09:25:20.056Z,17.40
2018-04-17T09:27:47.056Z,17.40
2018-04-17T09:30:14.064Z,17.50
2018-04-17T09:32:41.076Z,17.50
2018-04-17T09:35:08.841Z,17.50
2018-04-17T09:37:35.882Z,17.50
2018-04-17T09:40:03.669Z,17.70
2018-04-17T09:42:30.709Z,17.60
2018-04-17T09:44:57.689Z,17.70
2018-04-17T09:47:24.692Z,17.80
2018-04-17T09:49:51.969Z,17.80
2018-04-17T09:52:19.151Z,18.00
2018-04-17T09:54:46.260Z,18.00
2018-04-17T09:57:13.489Z,18.20
2018-04-17T09:59:40.634Z,18.20
2018-04-17T10:02:07.749Z,18.40
2018-04-17T10:04:34.960Z,18.50
2018-04-17T10:07:02.278Z,18.60
2018-04-17T10:09:29.386Z,18.70
2018-04-17T10:11:56.372Z,18.80
2018-04-17T10:14:23.392Z,18.90
2018-04-17T10:16:50.380Z,18.90
2018-04-17T10:19:17.396Z,19.00
2018-04-17T10:21:44.399Z,19.00
2018-04-17T10:24:11.398Z,19.10
2018-04-17T10:26:38.426Z,19.20
2018-04-17T10:29:05.549Z,19.30
2018-04-17T10:31:32.726Z,19.50
2018-04-17T10:33:59.941Z,19.70
2018-04-17T10:36:27.102Z,19.80
2018-04-17T10:38:54.220Z,20.10
2018-04-17T10:41:21.362Z,20.30
2018-04-17T10:43:49.239Z,20.50
2018-04-17T10:46:16.359Z,20.50
2018-04-17T10:48:44.164Z,20.60
2018-04-17T10:51:11.309Z,20.60
2018-04-17T10:53:38.393Z,20.50
2018-04-17T10:56:06.271Z,20.60
2018-04-17T10:58:33.413Z,20.60
2018-04-17T11:01:00.478Z,20.70
2018-04-17T11:03:27.574Z,20.70
2018-04-17T11:05:54.737Z,20.70
2018-04-17T11:08:22.124Z,20.70
2018-04-17T11:10:49.262Z,20.60
2018-04-17T11:13:16.399Z,20.40
2018-04-17T11:15:43.489Z,20.30
2018-04-17T11:18:11.333Z,20.30
2018-04-17T11:20:39.356Z,20.30
2018-04-17T11:23:06.538Z,20.30
2018-04-17T11:25:33.674Z,20.30
2018-04-17T11:28:00.798Z,20.20
2018-04-17T11:30:27.845Z,20.30
2018-04-17T11:32:55.724Z,20.40
2018-04-17T11:35:22.847Z,20.40
2018-04-17T11:37:50.669Z,20.50
2018-04-17T11:40:17.825Z,20.40
2018-04-17T11:42:45.016Z,20.50
2018-04-17T11:45:12.955Z,20.40
2018-04-17T11:47:40.870Z,20.30
2018-04-17T11:50:07.981Z,20.30
2018-04-17T11:52:35.061Z,20.30
2018-04-17T11:55:02.148Z,20.30
2018-04-17T11:57:29.258Z,20.20
2018-04-17T11:59:56.475Z,20.10
2018-04-17T12:02:24.478Z,20.00
2018-04-17T12:04:52.649Z,20.00
2018-04-17T12:07:19.808Z,20.00
2018-04-17T12:09:47.053Z,19.90
2018-04-17T12:12:14.100Z,19.90
2018-04-17T12:14:42.014Z,19.90
2018-04-17T12:17:09.853Z,20.00
2018-04-17T12:19:36.867Z,19.90
2018-04-17T12:22:04.896Z,19.90
2018-04-17T12:24:32.142Z,19.90
2018-04-17T12:26:59.229Z,19.90
2018-04-17T12:29:26.268Z,19.90
2018-04-17T12:31:53.400Z,20.00
2018-04-17T12:34:20.623Z,20.00
2018-04-17T12:36:47.783Z,20.00
2018-04-17T12:39:14.922Z,20.00
2018-04-17T12:41:42.100Z,20.00
2018-04-17T12:44:09.185Z,20.10
2018-04-17T12:46:36.576Z,20.10
2018-04-17T12:49:03.708Z,20.20
2018-04-17T12:51:30.796Z,20.30
2018-04-17T12:53:58.067Z,20.40
2018-04-17T12:56:25.200Z,20.50
2018-04-17T12:58:52.466Z,20.50
2018-04-17T13:01:19.563Z,20.60
2018-04-17T13:03:46.677Z,20.70
2018-04-17T13:06:14.671Z,21.20
2018-04-17T13:08:42.025Z,21.20
2018-04-17T13:11:09.157Z,21.40
2018-04-17T13:13:36.270Z,21.60
2018-04-17T13:16:03.362Z,21.80
2018-04-17T13:18:31.237Z,22.30
2018-04-17T13:20:59.281Z,22.30
2018-04-17T13:23:26.580Z,22.30
2018-04-17T13:25:53.726Z,22.40
2018-04-17T13:28:20.941Z,22.80
2018-04-17T13:30:48.072Z,23.40
2018-04-17T13:33:15.184Z,24.00
2018-04-17T13:35:42.429Z,24.40
2018-04-17T13:38:09.608Z,24.40
2018-04-17T13:40:36.787Z,24.40
2018-04-17T13:43:03.995Z,24.60
2018-04-17T13:45:31.132Z,24.60
2018-04-17T13:47:58.303Z,24.20
2018-04-17T13:50:25.413Z,24.00
2018-04-17T13:52:53.292Z,23.50
2018-04-17T13:55:21.208Z,23.30
2018-04-17T13:57:48.430Z,23.30
2018-04-17T14:00:16.297Z,22.80
2018-04-17T14:02:44.180Z,22.60
2018-04-17T14:05:11.353Z,22.50
2018-04-17T14:07:38.566Z,22.40
2018-04-17T14:10:05.657Z,22.30
2018-04-17T14:12:32.797Z,22.10
2018-04-17T14:14:59.853Z,22.00
2018-04-17T14:17:27.063Z,21.90
2018-04-17T14:19:54.248Z,21.80
2018-04-17T14:22:21.433Z,21.80
2018-04-17T14:24:48.538Z,21.60
2018-04-17T14:27:15.611Z,21.50
2018-04-17T14:29:42.716Z,21.50
2018-04-17T14:32:09.813Z,21.40
2018-04-17T14:34:36.882Z,21.30
2018-04-17T14:37:04.084Z,21.20
2018-04-17T14:39:31.238Z,21.20
2018-04-17T14:41:59.193Z,21.00
2018-04-17T14:44:26.452Z,21.00
2018-04-17T14:46:53.553Z,21.00
2018-04-17T14:49:20.675Z,20.90
2018-04-17T14:51:48.569Z,20.80
2018-04-17T14:54:15.584Z,20.80
2018-04-17T14:56:42.786Z,20.80
2018-04-17T14:59:09.953Z,20.80
2018-04-17T15:01:37.257Z,20.80
2018-04-17T15:04:04.578Z,20.80
2018-04-17T15:06:31.685Z,20.80
2018-04-17T15:08:58.801Z,20.80
2018-04-17T15:11:25.970Z,20.90
2018-04-17T15:13:53.831Z,20.90
2018-04-17T15:16:20.965Z,20.90
2018-04-17T15:18:48.925Z,21.00
2018-04-17T15:21:16.037Z,21.00
2018-04-17T15:23:43.224Z,21.10
2018-04-17T15:26:10.400Z,21.10
2018-04-17T15:28:38.339Z,21.20
2018-04-17T15:31:06.191Z,21.10
2018-04-17T15:33:33.301Z,21.20
2018-04-17T15:36:00.460Z,21.20
2018-04-17T15:38:27.802Z,21.20
2018-04-17T15:40:54.995Z,21.10
2018-04-17T15:43:22.821Z,21.10
2018-04-17T15:45:49.977Z,21.00
2018-04-17T15:48:17.178Z,21.00
2018-04-17T15:50:44.412Z,20.90
2018-04-17T15:53:12.321Z,20.80
2018-04-17T15:55:39.513Z,20.80
2018-04-17T15:58:06.638Z,20.70
2018-04-17T16:00:41.812Z,20.60
2018-04-17T16:03:09.063Z,20.60
2018-04-17T16:05:36.216Z,20.60
2018-04-17T16:08:03.416Z,20.50
2018-04-17T16:10:31.348Z,20.40
2018-04-17T16:12:58.570Z,20.50
2018-04-17T16:15:25.683Z,20.40
2018-04-17T16:17:52.725Z,20.30
2018-04-17T16:20:19.962Z,20.20
2018-04-17T16:22:47.114Z,20.20
2018-04-17T16:25:14.222Z,20.20
2018-04-17T16:27:41.549Z,20.10
2018-04-17T16:30:08.767Z,20.00
2018-04-17T16:32:35.955Z,20.00
2018-04-17T16:35:03.189Z,19.90
2018-04-17T16:37:30.279Z,19.80
2018-04-17T16:39:57.474Z,19.80
2018-04-17T16:42:24.634Z,19.70
2018-04-17T16:44:51.852Z,19.70
2018-04-17T16:47:18.944Z,19.70
2018-04-17T16:49:46.725Z,19.60
2018-04-17T16:52:13.823Z,19.60
2018-04-17T16:54:40.856Z,19.50
2018-04-17T16:57:07.945Z,19.50
2018-04-17T16:59:35.776Z,19.40
2018-04-17T17:02:02.961Z,19.30
2018-04-17T17:04:30.088Z,19.30
2018-04-17T17:06:57.240Z,19.30
2018-04-17T17:09:24.386Z,19.20
2018-04-17T17:11:52.211Z,19.10
2018-04-17T17:14:19.311Z,19.00
2018-04-17T17:16:47.293Z,18.90
2018-04-17T17:19:14.455Z,19.00
2018-04-17T17:21:48.728Z,18.90
2018-04-17T17:24:15.935Z,18.80
2018-04-17T17:26:43.059Z,18.80
2018-04-17T17:29:10.210Z,18.70
2018-04-17T17:31:38.513Z,18.70
2018-04-17T17:34:08.954Z,18.60
2018-04-17T17:36:36.016Z,18.60
2018-04-17T17:39:03.266Z,18.60
2018-04-17T17:41:30.327Z,18.50
2018-04-17T17:43:57.408Z,18.40
2018-04-17T17:46:24.577Z,18.30
2018-04-17T17:48:51.791Z,18.30
2018-04-17T17:51:19.007Z,18.20
2018-04-17T17:53:46.158Z,18.20
2018-04-17T17:56:14.677Z,18.10
2018-04-17T17:58:41.728Z,18.00
2018-04-17T18:01:08.921Z,18.00
2018-04-17T18:03:35.984Z,17.90
2018-04-17T18:06:03.926Z,17.80
2018-04-17T18:08:31.824Z,17.70
2018-04-17T18:10:58.880Z,17.70
2018-04-17T18:13:26.140Z,17.70
2018-04-17T18:15:53.226Z,17.60
2018-04-17T18:18:21.050Z,17.40
2018-04-17T18:20:48.113Z,17.40
2018-04-17T18:23:15.140Z,17.30
2018-04-17T18:25:42.124Z,17.20
2018-04-17T18:28:09.151Z,17.10
2018-04-17T18:30:36.171Z,16.90
2018-04-17T18:33:03.256Z,16.80
2018-04-17T18:35:31.136Z,16.50
2018-04-17T18:37:58.143Z,16.50
2018-04-17T18:40:25.164Z,16.40
2018-04-17T18:42:52.173Z,16.30
2018-04-17T18:45:19.195Z,16.20
2018-04-17T18:47:46.216Z,16.10
2018-04-17T18:50:15.362Z,16.00
2018-04-17T18:52:42.818Z,15.90
2018-04-17T18:55:09.917Z,15.80
2018-04-17T18:57:37.174Z,15.70
2018-04-17T19:00:04.272Z,15.60
2018-04-17T19:02:31.289Z,15.50
2018-04-17T19:04:58.319Z,15.40
2018-04-17T19:07:25.384Z,15.40
2018-04-17T19:09:52.460Z,15.40
2018-04-17T19:12:19.469Z,15.30
2018-04-17T19:14:46.493Z,15.20
2018-04-17T19:17:13.521Z,15.20
2018-04-17T19:19:41.333Z,15.10
2018-04-17T19:22:08.365Z,15.10
2018-04-17T19:24:35.364Z,15.00
2018-04-17T19:27:02.377Z,14.90
2018-04-17T19:29:29.373Z,14.80
2018-04-17T19:31:56.344Z,14.80
2018-04-17T19:34:24.155Z,14.60
2018-04-17T19:36:51.220Z,14.60
2018-04-17T19:39:18.993Z,14.50
2018-04-17T19:41:46.751Z,14.50
2018-04-17T19:44:14.021Z,14.40
2018-04-17T19:46:41.242Z,14.40
2018-04-17T19:49:09.235Z,14.30
2018-04-17T19:51:36.329Z,14.30
2018-04-17T19:54:03.356Z,14.30
2018-04-17T19:56:30.592Z,14.20
2018-04-17T19:58:58.191Z,14.10
2018-04-17T20:01:25.275Z,14.10
2018-04-17T20:03:52.600Z,14.10
2018-04-17T20:06:20.557Z,14.10
2018-04-17T20:08:47.750Z,14.10
2018-04-17T20:11:14.813Z,14.00
2018-04-17T20:13:41.884Z,14.00
2018-04-17T20:16:09.200Z,14.00
2018-04-17T20:18:36.248Z,13.90
2018-04-17T20:21:03.254Z,13.90
2018-04-17T20:23:30.500Z,13.80
2018-04-17T20:25:57.569Z,13.80
2018-04-17T20:28:24.623Z,13.80
2018-04-17T20:30:51.639Z,13.70
2018-04-17T20:33:18.649Z,13.70
2018-04-17T20:35:52.336Z,13.60
2018-04-17T20:38:19.396Z,13.70
2018-04-17T20:40:47.183Z,13.50
2018-04-17T20:43:14.959Z,13.50
2018-04-17T20:45:41.969Z,13.40
2018-04-17T20:48:09.038Z,13.40
2018-04-17T20:50:36.120Z,13.30
2018-04-17T20:53:03.200Z,13.30
2018-04-17T20:55:30.201Z,13.20
2018-04-17T20:57:57.228Z,13.20
2018-04-17T21:00:24.444Z,13.20
2018-04-17T21:02:51.536Z,13.10
2018-04-17T21:05:18.557Z,13.10
2018-04-17T21:07:46.599Z,13.00
2018-04-17T21:10:15.904Z,13.00
2018-04-17T21:12:43.004Z,13.00
2018-04-17T21:15:10.132Z,13.00
2018-04-17T21:17:37.455Z,13.00
2018-04-17T21:20:04.508Z,13.00
2018-04-17T21:22:31.529Z,13.00
2018-04-17T21:24:58.584Z,12.90
2018-04-17T21:27:25.620Z,12.90
2018-04-17T21:29:52.628Z,12.80
2018-04-17T21:32:20.361Z,12.80
2018-04-17T21:34:47.389Z,12.80
2018-04-17T21:37:14.405Z,12.80
2018-04-17T21:39:41.437Z,12.80
2018-04-17T21:42:08.453Z,12.70
2018-04-17T21:44:35.432Z,12.70
2018-04-17T21:47:02.462Z,12.60
2018-04-17T21:49:30.229Z,12.60
2018-04-17T21:51:58.021Z,12.50
2018-04-17T21:54:25.019Z,12.50
2018-04-17T21:56:52.023Z,12.50
2018-04-17T21:59:19.092Z,12.50
2018-04-17T22:01:46.109Z,12.50
2018-04-17T22:04:13.141Z,12.40
2018-04-17T22:06:40.171Z,12.40
2018-04-17T22:09:07.227Z,12.40
2018-04-17T22:11:34.283Z,12.40
2018-04-17T22:14:01.304Z,12.30
2018-04-17T22:16:29.274Z,12.30
2018-04-17T22:18:56.638Z,12.40
2018-04-17T22:21:24.429Z,12.30
2018-04-17T22:23:51.476Z,12.30
2018-04-17T22:26:18.839Z,12.30
2018-04-17T22:28:45.871Z,12.20
2018-04-17T22:31:13.607Z,12.20
2018-04-17T22:33:40.603Z,12.20
2018-04-17T22:36:07.644Z,12.20
2018-04-17T22:38:34.680Z,12.20
2018-04-17T22:41:01.729Z,12.20
2018-04-17T22:43:28.772Z,12.10
2018-04-17T22:45:55.840Z,12.00
2018-04-17T22:48:22.884Z,12.00
2018-04-17T22:50:49.957Z,12.00
2018-04-17T22:53:17.028Z,12.10
2018-04-17T22:55:44.035Z,12.10
2018-04-17T22:58:11.107Z,12.10
2018-04-17T23:00:38.147Z,12.00
2018-04-17T23:03:05.158Z,12.00
2018-04-17T23:05:32.186Z,12.00
2018-04-17T23:07:59.958Z,12.00
2018-04-17T23:10:27.744Z,11.90
2018-04-17T23:12:54.800Z,11.90
2018-04-17T23:15:21.892Z,11.90
2018-04-17T23:17:49.659Z,11.80
2018-04-17T23:20:16.660Z,11.80
2018-04-17T23:22:43.689Z,11.70
2018-04-17T23:25:10.708Z,11.70
2018-04-17T23:27:37.740Z,11.70
2018-04-17T23:30:04.772Z,11.70
2018-04-17T23:32:31.796Z,11.60
2018-04-17T23:37:32.738Z,11.60
2018-04-17T23:39:59.779Z,11.60
2018-04-17T23:42:26.780Z,11.60
2018-04-17T23:44:53.785Z,11.60
2018-04-17T23:47:20.793Z,11.60
2018-04-17T23:49:48.587Z,11.50
2018-04-17T23:52:15.635Z,11.60
2018-04-17T23:54:42.640Z,11.50
2018-04-17T23:57:09.637Z,11.50
2018-04-17T23:59:36.681Z,11.40
